Pagrindinis puslapis
METAR-TAF:

METAR-TAF

Oro uostai :

Kokomo Municipal Airport

Kokomo, Indiana, Jungtinės Amerikos Valstijos

platuma: 40-32N, ilguma: 086-04W, Aukštis: 253 m

Dabartinis oras

Ataskaita buvo paskelbta 17 minutes, ne 19:56 UTC
Vėjas 13 kt iš Vakarų
Temperatūra 17°C
Drėgmė 52%
Slėgis 1011 hPa
Matomumas: 16.1 km
Mažai debesys ne aukštis 4500 ft
Išsisklaidę debesys ne aukštis 8000 ft

METAR: KOKK 291956Z AUTO 27013KT 10SM FEW045 SCT080 17/07 A2984 RMK AO2 SLP107 T01720067

Laikas: 16:13 (20:13 UTC)


TAF: trūkstamas

Orai ataskaitas ir orų prognozės (METAR, TAF).

turimą stotys yra geltonos ir raudonos taškus žemėlapyje.

Perkelti pele per norėdami pamatyti stoties vardą.

Tada spustelėkite, norėdami matyti oro stebėjimo ir prognozės.

Norėdami pakeisti žemėlapį: spustelėkite ant žalios mygtukų su juodo kryžiaus žemyn,; žalią mygtuką su brūkšneliu, jei norite nutolinti; arba žalių rodyklių gretimoms žemėlapius.


METAR-TAF: